Aérodrome :
LOGIN :

S'inscrire | Disclaimer

   EN    FR    IT 

 










Légende :    VFR   VFR Marginal   IFR   IFR Intensif   IFR Très Intensif
Visi : 
Plafond : 
>= 8 km
>= 3000ft
5 à 8 km
1000 à 3000 ft
1500m à 5 km
500 à 1000 ft
800 à 1500m
200 à 500 ft
< 800m
< 200 ft
Symboles :   Orages  Brouillard  Fortes neiges  Fortes précipitations  Vent > 20 kt
SIGMETs :   Divers  Orages  Givrage  Turbulence  Onde Orograph.  Cendres Volcan.






- Altitude de l'aérodrome : 2625 ft
- Code IATA : LEU


LESU - Aeròdrom dels Pirineus-Alt Urgell

DERNIER METAR :
  • 291430Z 20010KT 170V230 9999 SCT060TCU SCT070 25/12 Q1015

METARs EXPIRÉS :
  • 291400Z 20013KT 9999 SCT060TCU SCT070 26/11 Q1015
  • 291330Z 21012KT 9999 SCT060TCU SCT070 24/10 Q1015
  • 291316Z 22011KT 9999 SCT060TCU SCT070 24/09 Q1015
  • 291300Z 21010KT 180V250 9999 SCT060 27/09 Q1016
  • 291230Z 23007KT 170V270 9999 SCT060 27/06 Q1016
  • 291200Z 21005KT 150V270 9999 SCT060 25/08 Q1016

TAF TAF LESU
Valide du 29 à 15h jusqu'au 30 à 15h UTC


291400Z 2915/3015 VRB04KT 9999 FEW050 TX26/3013Z TN13/3006Z
PROB40
TEMPO 2915/2921 22015G25KT 3000 SHRA FEW060CB
PROB30
TEMPO 2915/2921 22015G25KT 2000 TSRA FEW060CB



MET'MAP, la Météo Aéronautique d'un coup d'oeil ! - Copyright ORBIFLY Décembre 2007 - Disclaimer

ORBIFLY MET'MAP TEAM :

Programmation & Développement : Alexandra Zaïnal
Sur une idée originale de : Baudouin d'Aumeries
Assistance à la programmation : Marc-Olivier Méhu
Soutien technique & logistique : Manuel Goepfert

Contact : metmap@orbifly.com




SOURCES & CREDITS :

   NOAA